Time;durP1;ratioP1;P1;durP2;ratioP2;P2;SDS_P1;SDS_P2;PMS_P1;PMS_P2;Temp;Humidity;BMP_temperature;BMP_pressure;BME280_temperature;BME280_humidity;BME280_pressure;Samples;Min_cycle;Max_cycle;Signal;HPM_P1;HPM_P2
2021/10/26 00:02:03;;;;;;;20.92;9.35;;;;;;;;;;5038162;28;20032;-85
2021/10/26 00:04:30;;;;;;;28.55;11.30;;;;;;;;;;5037720;28;20029;-85
2021/10/26 00:06:56;;;;;;;25.33;11.40;;;;;;;;;;5038100;28;20037;-85
2021/10/26 00:09:22;;;;;;;19.00;8.98;;;;;;;;;;5038050;28;20021;-85
2021/10/26 00:11:49;;;;;;;20.15;9.43;;;;;;;;;;5038108;28;20024;-85
2021/10/26 00:14:15;;;;;;;23.17;9.18;;;;;;;;;;5038040;28;20025;-85
2021/10/26 00:16:41;;;;;;;21.42;10.02;;;;;;;;;;5038140;28;20033;-85
2021/10/26 00:19:07;;;;;;;24.77;9.85;;;;;;;;;;5037915;28;20025;-85
2021/10/26 00:21:34;;;;;;;22.58;9.93;;;;;;;;;;5037862;28;20028;-85
2021/10/26 00:24:00;;;;;;;21.33;8.55;;;;;;;;;;5034419;28;20049;-85
2021/10/26 00:26:26;;;;;;;19.55;8.25;;;;;;;;;;5034346;28;20128;-84
2021/10/26 00:28:54;;;;;;;23.05;8.52;;;;;;;;;;5034464;28;20021;-85
2021/10/26 00:31:20;;;;;;;19.05;9.10;;;;;;;;;;5034473;28;20034;-84
2021/10/26 00:33:46;;;;;;;20.50;8.90;;;;;;;;;;5034372;28;20425;-85
2021/10/26 00:36:13;;;;;;;19.95;10.02;;;;;;;;;;5034310;28;20030;-85
2021/10/26 00:38:39;;;;;;;27.25;11.85;;;;;;;;;;5050759;28;20025;-85
2021/10/26 00:41:06;;;;;;;23.08;10.85;;;;;;;;;;5035246;28;20097;-85
2021/10/26 00:43:33;;;;;;;17.50;9.88;;;;;;;;;;5034272;28;20029;-85
2021/10/26 00:45:59;;;;;;;22.02;9.25;;;;;;;;;;5034077;28;20037;-85
2021/10/26 00:48:25;;;;;;;25.42;10.02;;;;;;;;;;5033933;28;20417;-84
2021/10/26 00:50:52;;;;;;;19.88;9.50;;;;;;;;;;5034021;28;20029;-85
2021/10/26 00:53:18;;;;;;;19.90;9.15;;;;;;;;;;5033407;28;20025;-85
2021/10/26 00:55:45;;;;;;;18.42;8.00;;;;;;;;;;5034060;28;20025;-83
2021/10/26 00:58:12;;;;;;;15.80;8.07;;;;;;;;;;5033891;28;20083;-85
2021/10/26 01:00:38;;;;;;;19.23;8.40;;;;;;;;;;5033349;28;20136;-84
2021/10/26 01:03:04;;;;;;;22.27;7.88;;;;;;;;;;5033061;28;20429;-84
2021/10/26 01:05:31;;;;;;;14.55;6.28;;;;;;;;;;5033045;28;20095;-84
2021/10/26 01:07:57;;;;;;;13.40;6.85;;;;;;;;;;5034098;28;20095;-85
2021/10/26 01:10:23;;;;;;;14.45;6.97;;;;;;;;;;5032871;28;20036;-84
2021/10/26 01:12:50;;;;;;;12.98;6.32;;;;;;;;;;5032806;28;20136;-84
2021/10/26 01:15:16;;;;;;;13.82;6.15;;;;;;;;;;5034133;28;20030;-84
2021/10/26 01:17:42;;;;;;;12.20;6.93;;;;;;;;;;5032704;28;20121;-84
2021/10/26 01:20:09;;;;;;;15.07;6.13;;;;;;;;;;5032650;28;20433;-85
2021/10/26 01:22:39;;;;;;;13.52;6.28;;;;;;;;;;5038262;28;20072;-83
2021/10/26 01:25:12;;;;;;;14.52;5.95;;;;;;;;;;5035921;28;20029;-85
2021/10/26 01:27:43;;;;;;;13.00;4.85;;;;;;;;;;5035812;28;20037;-84
2021/10/26 01:30:10;;;;;;;9.25;4.75;;;;;;;;;;5035738;28;20060;-85
2021/10/26 01:32:37;;;;;;;12.95;4.70;;;;;;;;;;5035817;28;20029;-84
2021/10/26 01:35:03;;;;;;;9.13;4.25;;;;;;;;;;5035709;28;20521;-85
2021/10/26 01:37:31;;;;;;;11.60;4.25;;;;;;;;;;5035533;28;20025;-85
2021/10/26 01:39:58;;;;;;;9.02;4.30;;;;;;;;;;5035717;28;20420;-83
2021/10/26 01:42:25;;;;;;;7.53;4.13;;;;;;;;;;5053392;28;20100;-84
2021/10/26 01:44:51;;;;;;;9.38;4.30;;;;;;;;;;5053385;28;20033;-84
2021/10/26 01:47:17;;;;;;;11.15;3.75;;;;;;;;;;5035335;28;20131;-85
2021/10/26 01:49:44;;;;;;;10.38;4.90;;;;;;;;;;5035376;28;20028;-84
2021/10/26 01:52:10;;;;;;;9.38;4.57;;;;;;;;;;5053391;28;20397;-84
2021/10/26 01:54:38;;;;;;;11.25;4.78;;;;;;;;;;5035340;28;20021;-84
2021/10/26 01:57:05;;;;;;;7.75;3.97;;;;;;;;;;5035280;28;20039;-85
2021/10/26 01:59:32;;;;;;;7.53;3.40;;;;;;;;;;5053042;28;20017;-84
2021/10/26 02:01:58;;;;;;;6.80;3.75;;;;;;;;;;5035138;28;20148;-86
2021/10/26 02:04:25;;;;;;;11.77;4.57;;;;;;;;;;5034239;28;20488;-84
2021/10/26 02:06:51;;;;;;;10.95;5.07;;;;;;;;;;5034956;28;20033;-84
2021/10/26 02:09:17;;;;;;;10.15;4.00;;;;;;;;;;5052992;28;20025;-85
2021/10/26 02:11:44;;;;;;;9.57;4.15;;;;;;;;;;5035020;28;20029;-84
2021/10/26 02:14:11;;;;;;;9.50;4.45;;;;;;;;;;5035040;28;20036;-85
2021/10/26 02:16:40;;;;;;;13.63;3.88;;;;;;;;;;5035041;28;20037;-86
2021/10/26 02:19:06;;;;;;;11.23;4.32;;;;;;;;;;5052870;28;20025;-84
2021/10/26 02:21:32;;;;;;;11.05;4.18;;;;;;;;;;5034951;28;20036;-85
2021/10/26 02:23:59;;;;;;;17.70;4.32;;;;;;;;;;5031421;28;20038;-84
2021/10/26 02:26:25;;;;;;;8.38;3.72;;;;;;;;;;5032689;28;20470;-84
2021/10/26 02:28:51;;;;;;;9.50;3.35;;;;;;;;;;5032751;28;20022;-85
2021/10/26 02:31:18;;;;;;;14.23;3.03;;;;;;;;;;5032751;28;20026;-85
2021/10/26 02:33:44;;;;;;;10.20;4.10;;;;;;;;;;5031416;28;20033;-85
2021/10/26 02:36:10;;;;;;;12.00;4.50;;;;;;;;;;5031496;28;20025;-84
2021/10/26 02:38:36;;;;;;;10.18;3.78;;;;;;;;;;5032671;28;20041;-84
2021/10/26 02:41:03;;;;;;;6.22;3.53;;;;;;;;;;5032481;28;20044;-84
2021/10/26 02:43:30;;;;;;;10.20;4.40;;;;;;;;;;5032667;28;20497;-84
2021/10/26 02:45:57;;;;;;;9.93;4.00;;;;;;;;;;5031166;28;20112;-85
2021/10/26 02:48:23;;;;;;;8.52;3.85;;;;;;;;;;5031284;28;20034;-84
2021/10/26 02:50:49;;;;;;;10.80;3.67;;;;;;;;;;5032514;28;20463;-84
2021/10/26 02:53:16;;;;;;;10.50;4.28;;;;;;;;;;5031183;28;20065;-83
2021/10/26 02:55:43;;;;;;;5.63;3.08;;;;;;;;;;5031210;28;20033;-84
2021/10/26 02:58:09;;;;;;;4.78;2.75;;;;;;;;;;5031187;28;20518;-85
2021/10/26 03:00:35;;;;;;;9.82;3.45;;;;;;;;;;5031197;28;20363;-85
2021/10/26 03:03:02;;;;;;;15.93;3.83;;;;;;;;;;5031109;28;20095;-84
2021/10/26 03:05:28;;;;;;;9.30;3.30;;;;;;;;;;5031169;28;20487;-84
2021/10/26 03:07:54;;;;;;;9.52;3.80;;;;;;;;;;5030911;28;20171;-84
2021/10/26 03:10:21;;;;;;;6.70;3.40;;;;;;;;;;5031086;28;20394;-85
2021/10/26 03:12:47;;;;;;;8.65;4.00;;;;;;;;;;5031014;28;20037;-85
2021/10/26 03:15:13;;;;;;;8.18;3.55;;;;;;;;;;5032543;28;20021;-84
2021/10/26 03:17:40;;;;;;;10.20;3.90;;;;;;;;;;5034998;28;20481;-85
2021/10/26 03:20:07;;;;;;;11.57;3.35;;;;;;;;;;5034861;28;20084;-85
2021/10/26 03:22:33;;;;;;;10.05;4.53;;;;;;;;;;5034742;28;20053;-85
2021/10/26 03:24:59;;;;;;;8.13;3.33;;;;;;;;;;5034900;28;20089;-84
2021/10/26 03:27:26;;;;;;;9.25;4.07;;;;;;;;;;5035995;28;20042;-83
2021/10/26 03:29:53;;;;;;;9.13;3.83;;;;;;;;;;5034790;28;20018;-86
2021/10/26 03:32:19;;;;;;;8.77;3.75;;;;;;;;;;5034680;28;20033;-84
2021/10/26 03:34:46;;;;;;;11.77;3.63;;;;;;;;;;5034711;28;20033;-85
2021/10/26 03:37:12;;;;;;;7.60;4.40;;;;;;;;;;5034933;28;20033;-84
2021/10/26 03:39:38;;;;;;;18.95;4.22;;;;;;;;;;5034564;28;20026;-84
2021/10/26 03:42:05;;;;;;;9.35;4.45;;;;;;;;;;5034618;28;20396;-85
2021/10/26 03:44:31;;;;;;;7.88;4.15;;;;;;;;;;5034430;28;20497;-84
2021/10/26 03:46:57;;;;;;;9.18;4.38;;;;;;;;;;5034332;28;20044;-85
2021/10/26 03:49:23;;;;;;;24.77;4.70;;;;;;;;;;5034311;28;20438;-85
2021/10/26 03:51:49;;;;;;;9.00;3.90;;;;;;;;;;5034303;28;20130;-85
2021/10/26 03:54:16;;;;;;;11.00;4.38;;;;;;;;;;5034330;28;20029;-86
2021/10/26 03:56:42;;;;;;;11.68;4.65;;;;;;;;;;5034274;28;20021;-86
2021/10/26 03:59:10;;;;;;;8.35;4.05;;;;;;;;;;5034252;28;20398;-84
2021/10/26 04:01:37;;;;;;;9.57;3.92;;;;;;;;;;5034202;28;20029;-85
2021/10/26 04:04:04;;;;;;;9.23;3.95;;;;;;;;;;5034136;28;20041;-83
2021/10/26 04:06:32;;;;;;;6.18;3.30;;;;;;;;;;5034085;28;20405;-84
2021/10/26 04:09:02;;;;;;;18.98;4.43;;;;;;;;;;5034031;28;20095;-84
2021/10/26 04:11:29;;;;;;;8.93;3.70;;;;;;;;;;5035311;28;20441;-84
2021/10/26 04:13:56;;;;;;;8.70;4.55;;;;;;;;;;5035285;28;20022;-85
2021/10/26 04:16:23;;;;;;;10.10;3.72;;;;;;;;;;5033918;28;20441;-84
2021/10/26 04:18:50;;;;;;;7.60;3.92;;;;;;;;;;5035157;28;20017;-85
2021/10/26 04:21:17;;;;;;;7.63;3.75;;;;;;;;;;5026034;28;20045;-84
2021/10/26 04:23:46;;;;;;;10.73;4.22;;;;;;;;;;5014250;28;20538;-84
2021/10/26 04:26:14;;;;;;;15.13;5.57;;;;;;;;;;5013788;28;20427;-83
2021/10/26 04:28:40;;;;;;;8.73;4.43;;;;;;;;;;5014781;28;20038;-83
2021/10/26 04:31:06;;;;;;;12.93;4.70;;;;;;;;;;5015418;28;20026;-82
2021/10/26 04:33:32;;;;;;;13.13;4.72;;;;;;;;;;5014825;28;20528;-83
2021/10/26 04:35:59;;;;;;;12.30;4.85;;;;;;;;;;5014661;28;20029;-83
2021/10/26 04:38:25;;;;;;;7.30;4.40;;;;;;;;;;5014559;28;20038;-83
2021/10/26 04:40:57;;;;;;;9.13;4.30;;;;;;;;;;5015773;28;20092;-82
2021/10/26 04:43:24;;;;;;;20.17;5.00;;;;;;;;;;5015828;28;20061;-84
2021/10/26 04:45:51;;;;;;;13.82;5.40;;;;;;;;;;5014316;28;20394;-82
2021/10/26 04:48:19;;;;;;;8.68;4.68;;;;;;;;;;5014463;28;20029;-83
2021/10/26 04:50:45;;;;;;;16.05;4.80;;;;;;;;;;5014313;28;20073;-83
2021/10/26 04:53:11;;;;;;;13.27;4.03;;;;;;;;;;5014297;28;20145;-82
2021/10/26 04:55:37;;;;;;;12.43;4.70;;;;;;;;;;5014250;28;20113;-82
2021/10/26 04:58:04;;;;;;;11.60;4.93;;;;;;;;;;5014134;28;20034;-84
2021/10/26 05:00:30;;;;;;;15.32;4.65;;;;;;;;;;5014137;28;20022;-83
2021/10/26 05:02:56;;;;;;;8.80;4.10;;;;;;;;;;5017456;28;20029;-84
2021/10/26 05:05:23;;;;;;;13.10;4.97;;;;;;;;;;5017639;28;20033;-82
2021/10/26 05:07:50;;;;;;;9.55;4.70;;;;;;;;;;5025181;28;20034;-82
2021/10/26 05:10:16;;;;;;;10.57;5.55;;;;;;;;;;5029570;28;20060;-81
2021/10/26 05:12:42;;;;;;;8.63;4.50;;;;;;;;;;5033753;28;20425;-85
2021/10/26 05:15:09;;;;;;;14.35;5.70;;;;;;;;;;5034822;28;20441;-82
2021/10/26 05:17:37;;;;;;;15.07;5.47;;;;;;;;;;5024477;28;20029;-82
2021/10/26 05:20:05;;;;;;;12.43;5.43;;;;;;;;;;5013572;28;20191;-82
2021/10/26 05:22:31;;;;;;;12.88;5.07;;;;;;;;;;5013326;28;20076;-82
2021/10/26 05:24:57;;;;;;;16.92;5.35;;;;;;;;;;5032620;28;20103;-82
2021/10/26 05:27:23;;;;;;;10.27;5.30;;;;;;;;;;5032737;28;20042;-82
2021/10/26 05:29:50;;;;;;;25.30;5.53;;;;;;;;;;5023812;28;20033;-83
2021/10/26 05:32:16;;;;;;;13.80;6.15;;;;;;;;;;5013457;28;20033;-83
2021/10/26 05:34:43;;;;;;;11.38;4.78;;;;;;;;;;5013310;28;20022;-83
2021/10/26 05:37:13;;;;;;;12.85;4.95;;;;;;;;;;5014567;28;20026;-82
2021/10/26 05:39:40;;;;;;;17.10;5.53;;;;;;;;;;5013478;28;20033;-82
2021/10/26 05:42:07;;;;;;;13.65;5.88;;;;;;;;;;5032278;28;20519;-81
2021/10/26 05:44:34;;;;;;;20.35;5.75;;;;;;;;;;5032668;28;20028;-81
2021/10/26 05:47:00;;;;;;;12.77;5.47;;;;;;;;;;5034185;28;20087;-81
2021/10/26 05:49:26;;;;;;;14.55;4.85;;;;;;;;;;5033087;28;20555;-82
2021/10/26 05:51:52;;;;;;;14.13;6.18;;;;;;;;;;5032879;28;20025;-82
2021/10/26 05:54:18;;;;;;;13.50;5.95;;;;;;;;;;5032868;28;20037;-82
2021/10/26 05:56:44;;;;;;;12.80;5.82;;;;;;;;;;5033916;28;20036;-82
2021/10/26 05:59:10;;;;;;;13.43;5.75;;;;;;;;;;5034328;28;20067;-83
2021/10/26 06:01:37;;;;;;;10.95;6.10;;;;;;;;;;5033976;28;20060;-82
2021/10/26 06:04:03;;;;;;;18.80;6.20;;;;;;;;;;5032625;28;20026;-82
2021/10/26 06:06:29;;;;;;;15.18;6.85;;;;;;;;;;5021856;28;20497;-81
2021/10/26 06:08:56;;;;;;;15.80;7.40;;;;;;;;;;5012869;28;20029;-82
2021/10/26 06:11:24;;;;;;;28.90;6.75;;;;;;;;;;5012828;28;20022;-82
2021/10/26 06:14:01;;;;;;;13.35;6.20;;;;;;;;;;5014286;28;20026;-82
2021/10/26 06:16:31;;;;;;;20.95;7.63;;;;;;;;;;5014024;28;20022;-85
2021/10/26 06:18:57;;;;;;;22.38;7.13;;;;;;;;;;5012771;28;20109;-85
2021/10/26 06:21:23;;;;;;;17.30;6.65;;;;;;;;;;5012632;28;20026;-82
2021/10/26 06:23:49;;;;;;;15.55;6.65;;;;;;;;;;5012406;28;20553;-82
2021/10/26 06:26:16;;;;;;;15.70;6.75;;;;;;;;;;5013818;28;20092;-82
2021/10/26 06:28:42;;;;;;;12.85;6.55;;;;;;;;;;5012470;28;20117;-82
2021/10/26 06:31:08;;;;;;;13.95;6.38;;;;;;;;;;5013794;28;20030;-83
2021/10/26 06:33:34;;;;;;;23.45;7.80;;;;;;;;;;5013706;28;20049;-83
2021/10/26 06:36:00;;;;;;;17.75;7.45;;;;;;;;;;5013736;28;20100;-82
2021/10/26 06:38:26;;;;;;;19.17;7.63;;;;;;;;;;5012294;28;20034;-83
2021/10/26 06:40:53;;;;;;;21.70;8.75;;;;;;;;;;5012355;28;20029;-82
2021/10/26 06:43:19;;;;;;;21.70;8.88;;;;;;;;;;5012379;28;20457;-83
2021/10/26 06:45:46;;;;;;;23.67;9.60;;;;;;;;;;5012289;28;20083;-83
2021/10/26 06:48:12;;;;;;;22.88;9.77;;;;;;;;;;5012277;28;20069;-83
2021/10/26 06:50:38;;;;;;;23.58;10.80;;;;;;;;;;5012891;28;20471;-82
2021/10/26 06:53:04;;;;;;;25.92;10.93;;;;;;;;;;5012253;28;20026;-83
2021/10/26 06:55:31;;;;;;;27.50;11.35;;;;;;;;;;5013488;28;20025;-83
2021/10/26 06:57:57;;;;;;;26.85;12.68;;;;;;;;;;5013665;28;20376;-83
2021/10/26 07:00:24;;;;;;;25.25;11.15;;;;;;;;;;5013618;28;20025;-83
2021/10/26 07:02:52;;;;;;;30.83;12.00;;;;;;;;;;5011868;28;20074;-85
2021/10/26 07:05:19;;;;;;;26.92;12.38;;;;;;;;;;5012601;28;20022;-85
2021/10/26 07:07:45;;;;;;;31.05;14.50;;;;;;;;;;5031268;28;20152;-85
2021/10/26 07:10:12;;;;;;;25.90;12.27;;;;;;;;;;5031781;28;20022;-85
2021/10/26 07:12:38;;;;;;;34.03;10.27;;;;;;;;;;5031744;28;20405;-83
2021/10/26 07:15:08;;;;;;;17.65;7.43;;;;;;;;;;5031762;28;20112;-85
2021/10/26 07:17:39;;;;;;;18.67;7.38;;;;;;;;;;5031736;28;20026;-85
2021/10/26 07:20:07;;;;;;;13.73;7.90;;;;;;;;;;5031783;28;20026;-85
2021/10/26 07:22:33;;;;;;;28.73;12.50;;;;;;;;;;5036683;28;20079;-85
2021/10/26 07:25:04;;;;;;;18.90;10.15;;;;;;;;;;5035035;28;20108;-83
2021/10/26 07:27:30;;;;;;;19.73;9.32;;;;;;;;;;5034830;28;20033;-85
2021/10/26 07:29:56;;;;;;;19.58;8.68;;;;;;;;;;5034929;28;20474;-82
2021/10/26 07:32:23;;;;;;;20.60;9.30;;;;;;;;;;5034897;28;20124;-83
2021/10/26 07:34:49;;;;;;;14.45;7.50;;;;;;;;;;5034756;28;20028;-83
2021/10/26 07:37:19;;;;;;;14.98;6.60;;;;;;;;;;5034814;28;20025;-83
2021/10/26 07:42:12;;;;;;;15.98;6.47;;;;;;;;;;5052965;28;20029;-84
2021/10/26 07:44:38;;;;;;;11.13;5.38;;;;;;;;;;5034728;28;20033;-84
2021/10/26 07:47:04;;;;;;;16.80;6.28;;;;;;;;;;5034814;28;20033;-84
2021/10/26 07:49:31;;;;;;;13.02;5.93;;;;;;;;;;5034752;28;20029;-84
2021/10/26 07:51:58;;;;;;;9.18;5.57;;;;;;;;;;5034709;28;20028;-84
2021/10/26 07:54:24;;;;;;;7.53;4.35;;;;;;;;;;5034871;28;20390;-84
2021/10/26 07:56:51;;;;;;;11.10;4.70;;;;;;;;;;5034844;28;20115;-84
2021/10/26 07:59:17;;;;;;;7.63;4.70;;;;;;;;;;5035062;28;20031;-84
2021/10/26 08:01:46;;;;;;;8.85;4.50;;;;;;;;;;5035470;28;20021;-84
2021/10/26 08:04:12;;;;;;;9.50;4.72;;;;;;;;;;5037930;28;20036;-82
2021/10/26 08:06:40;;;;;;;9.63;5.15;;;;;;;;;;5051685;28;20636;-83
2021/10/26 08:09:06;;;;;;;8.10;4.40;;;;;;;;;;5038105;28;20496;-85
2021/10/26 08:11:34;;;;;;;8.68;4.95;;;;;;;;;;5056107;28;20481;-82
2021/10/26 08:14:00;;;;;;;8.35;4.68;;;;;;;;;;5034231;28;20033;-82
2021/10/26 08:16:27;;;;;;;8.40;4.80;;;;;;;;;;5037833;28;20033;-83
2021/10/26 08:18:53;;;;;;;11.52;5.00;;;;;;;;;;5038157;28;20021;-83
2021/10/26 08:21:19;;;;;;;15.68;6.55;;;;;;;;;;5055618;28;20025;-83
2021/10/26 08:23:46;;;;;;;11.85;5.55;;;;;;;;;;5034321;28;20049;-82
2021/10/26 08:26:20;;;;;;;9.07;4.90;;;;;;;;;;5034558;28;20033;-83
2021/10/26 08:28:49;;;;;;;9.18;4.45;;;;;;;;;;5034374;28;20029;-83
2021/10/26 08:31:23;;;;;;;11.23;5.03;;;;;;;;;;5034622;28;20116;-84
2021/10/26 08:34:09;;;;;;;8.35;4.88;;;;;;;;;;5034486;28;20026;-84
2021/10/26 08:36:36;;;;;;;9.82;4.97;;;;;;;;;;5034240;28;20029;-84
2021/10/26 08:39:04;;;;;;;8.25;5.22;;;;;;;;;;5034321;28;20040;-83
2021/10/26 08:41:30;;;;;;;8.48;6.03;;;;;;;;;;5034401;28;20446;-83
2021/10/26 08:43:56;;;;;;;11.82;4.93;;;;;;;;;;5034265;28;20075;-83
2021/10/26 08:46:23;;;;;;;11.55;5.30;;;;;;;;;;5034110;28;20036;-83
2021/10/26 08:48:53;;;;;;;11.90;4.70;;;;;;;;;;5034038;28;20029;-84
2021/10/26 08:51:22;;;;;;;12.77;6.47;;;;;;;;;;5035275;28;20022;-84
2021/10/26 08:53:48;;;;;;;11.48;5.55;;;;;;;;;;5033890;28;20030;-84
2021/10/26 08:56:16;;;;;;;10.10;5.50;;;;;;;;;;5033870;28;20474;-83
2021/10/26 08:58:43;;;;;;;14.00;6.60;;;;;;;;;;5033946;28;20029;-84
2021/10/26 09:01:10;;;;;;;13.70;6.57;;;;;;;;;;5034070;28;20124;-84
2021/10/26 09:06:43;;;;;;;12.18;5.55;;;;;;;;;;5030770;28;20053;-92
2021/10/26 09:09:25;;;;;;;10.77;4.90;;;;;;;;;;5014927;28;20076;-91
2021/10/26 09:16:40;;;;;;;9.43;4.35;;;;;;;;;;5015260;28;20030;-92
2021/10/26 09:17:28;;;;;;;9.98;5.60;;;;;;;;;;5016680;28;20065;-93
2021/10/26 09:19:55;;;;;;;11.43;4.93;;;;;;;;;;5015053;28;20053;-91
2021/10/26 09:22:22;;;;;;;13.27;5.45;;;;;;;;;;5017162;28;20037;-91
2021/10/26 09:24:55;;;;;;;9.23;5.40;;;;;;;;;;5017832;28;20131;-90
2021/10/26 09:27:22;;;;;;;9.32;5.30;;;;;;;;;;5017833;28;20040;-91
2021/10/26 09:29:49;;;;;;;10.35;5.28;;;;;;;;;;5017780;28;20041;-91
2021/10/26 09:32:16;;;;;;;12.15;6.38;;;;;;;;;;5017368;28;20030;-83
2021/10/26 09:34:54;;;;;;;10.35;5.55;;;;;;;;;;5016008;28;20056;-83
2021/10/26 09:37:20;;;;;;;10.57;5.28;;;;;;;;;;5016259;28;20036;-83
2021/10/26 09:39:55;;;;;;;9.70;5.22;;;;;;;;;;5016413;28;20029;-83
2021/10/26 09:42:21;;;;;;;11.02;5.15;;;;;;;;;;5034364;28;20033;-83
2021/10/26 09:44:49;;;;;;;12.63;5.93;;;;;;;;;;5016491;28;20025;-82
2021/10/26 09:47:19;;;;;;;15.65;6.35;;;;;;;;;;5036283;28;20152;-83
2021/10/26 09:49:51;;;;;;;9.05;5.30;;;;;;;;;;5033993;28;20386;-83
2021/10/26 09:52:21;;;;;;;8.35;4.88;;;;;;;;;;5035741;28;20033;-83
2021/10/26 09:54:48;;;;;;;14.35;5.68;;;;;;;;;;5036054;28;20043;-84
2021/10/26 09:57:15;;;;;;;8.63;5.30;;;;;;;;;;5053919;28;20021;-83
2021/10/26 09:59:46;;;;;;;10.30;5.90;;;;;;;;;;5037263;28;20037;-82
2021/10/26 10:02:17;;;;;;;10.70;5.43;;;;;;;;;;5054524;28;20029;-82
2021/10/26 10:04:43;;;;;;;10.63;5.70;;;;;;;;;;5036009;28;20036;-82
2021/10/26 10:07:10;;;;;;;9.77;5.00;;;;;;;;;;5019817;28;20063;-82
2021/10/26 10:09:36;;;;;;;11.80;5.60;;;;;;;;;;5016324;28;20025;-82
2021/10/26 10:12:07;;;;;;;10.20;5.63;;;;;;;;;;5034067;28;20048;-82
2021/10/26 10:14:34;;;;;;;11.98;5.25;;;;;;;;;;5016117;28;20022;-82
2021/10/26 10:17:02;;;;;;;9.68;4.70;;;;;;;;;;5016019;28;20481;-83
2021/10/26 10:19:29;;;;;;;8.75;5.30;;;;;;;;;;5015762;28;20533;-83
2021/10/26 10:21:56;;;;;;;10.77;5.07;;;;;;;;;;5015968;28;20037;-83
2021/10/26 10:24:22;;;;;;;12.00;4.85;;;;;;;;;;5011720;28;20046;-83
2021/10/26 10:26:50;;;;;;;15.15;4.97;;;;;;;;;;5013747;28;20091;-82
2021/10/26 10:29:17;;;;;;;9.82;5.53;;;;;;;;;;5012503;28;20109;-83
2021/10/26 10:31:44;;;;;;;11.65;5.00;;;;;;;;;;5013772;28;20025;-83
2021/10/26 10:34:10;;;;;;;9.50;5.18;;;;;;;;;;5012472;28;20029;-83
2021/10/26 10:36:41;;;;;;;9.35;5.15;;;;;;;;;;5012388;28;20062;-82
2021/10/26 10:39:08;;;;;;;7.85;4.97;;;;;;;;;;5012497;28;20048;-82
2021/10/26 10:41:36;;;;;;;9.65;5.63;;;;;;;;;;5013586;28;20029;-83
2021/10/26 10:44:20;;;;;;;8.93;5.25;;;;;;;;;;5013903;28;20037;-83
2021/10/26 10:46:54;;;;;;;8.90;5.28;;;;;;;;;;5012145;28;20076;-83
2021/10/26 10:49:24;;;;;;;10.18;5.72;;;;;;;;;;5017175;28;20501;-83
2021/10/26 10:51:57;;;;;;;10.40;5.55;;;;;;;;;;5014284;28;20132;-82
2021/10/26 10:54:54;;;;;;;16.15;5.63;;;;;;;;;;5012105;28;20026;-82
2021/10/26 10:57:20;;;;;;;14.50;6.38;;;;;;;;;;5013905;28;20029;-82
2021/10/26 10:59:48;;;;;;;14.95;5.95;;;;;;;;;;5014510;28;20096;-82
2021/10/26 11:02:18;;;;;;;9.60;5.97;;;;;;;;;;5025765;28;20048;-84
2021/10/26 11:04:44;;;;;;;14.20;6.20;;;;;;;;;;5012265;28;20038;-82
2021/10/26 11:07:10;;;;;;;10.40;6.50;;;;;;;;;;5028044;28;20044;-82
2021/10/26 11:09:39;;;;;;;9.20;5.90;;;;;;;;;;5031806;28;20034;-82
2021/10/26 11:12:10;;;;;;;10.98;6.28;;;;;;;;;;5031821;28;20033;-82
2021/10/26 11:14:43;;;;;;;11.15;6.60;;;;;;;;;;5031751;28;20413;-82
2021/10/26 11:17:09;;;;;;;;;;;;;;;;;;5033811;28;20087;-82
2021/10/26 11:19:57;;;;;;;12.70;6.28;;;;;;;;;;5026621;28;19921;-83
2021/10/26 11:22:41;;;;;;;10.68;6.30;;;;;;;;;;5029978;28;20034;-83
2021/10/26 11:25:27;;;;;;;11.98;5.43;;;;;;;;;;5031642;28;20026;-83
2021/10/26 11:27:53;;;;;;;11.43;4.90;;;;;;;;;;5043172;28;20037;-84
2021/10/26 11:30:39;;;;;;;9.35;4.95;;;;;;;;;;5052706;28;20033;-82
2021/10/26 11:33:15;;;;;;;9.10;5.03;;;;;;;;;;5035811;28;20033;-83
2021/10/26 11:35:42;;;;;;;12.15;5.38;;;;;;;;;;5053334;28;20021;-82
2021/10/26 11:38:09;;;;;;;8.68;5.45;;;;;;;;;;5056638;28;20056;-83
2021/10/26 11:40:35;;;;;;;10.48;5.35;;;;;;;;;;5056474;28;20024;-83
2021/10/26 11:43:02;;;;;;;13.32;5.47;;;;;;;;;;5056541;28;20060;-82
2021/10/26 11:45:28;;;;;;;16.02;5.85;;;;;;;;;;5056431;28;20385;-83
2021/10/26 11:47:54;;;;;;;10.45;5.40;;;;;;;;;;5056288;28;20107;-81
2021/10/26 11:50:21;;;;;;;11.05;5.10;;;;;;;;;;5038521;28;20120;-82
2021/10/26 11:52:48;;;;;;;9.10;5.15;;;;;;;;;;5056250;28;20491;-82
2021/10/26 11:55:27;;;;;;;9.23;5.43;;;;;;;;;;5038410;28;20052;-82
2021/10/26 11:57:56;;;;;;;10.70;5.60;;;;;;;;;;5038478;28;20025;-83
2021/10/26 12:00:22;;;;;;;10.88;5.75;;;;;;;;;;5035675;28;20037;-85
2021/10/26 12:02:51;;;;;;;11.43;5.47;;;;;;;;;;5026744;28;20120;-86
2021/10/26 12:05:18;;;;;;;15.57;5.65;;;;;;;;;;5044823;28;20104;-81
2021/10/26 12:07:49;;;;;;;9.93;6.07;;;;;;;;;;5025748;28;20052;-82
2021/10/26 12:10:16;;;;;;;11.13;6.30;;;;;;;;;;5044518;28;20112;-84
2021/10/26 12:12:42;;;;;;;10.85;6.22;;;;;;;;;;5027820;28;20535;-85
2021/10/26 12:15:10;;;;;;;15.57;7.15;;;;;;;;;;5044251;28;20021;-83
2021/10/26 12:17:40;;;;;;;12.63;7.18;;;;;;;;;;5026099;28;20024;-83
2021/10/26 12:20:20;;;;;;;15.75;7.15;;;;;;;;;;5035799;28;20100;-84
2021/10/26 12:22:51;;;;;;;13.93;7.95;;;;;;;;;;5014565;28;20054;-84
2021/10/26 12:25:21;;;;;;;15.80;7.97;;;;;;;;;;5016137;28;20037;-86
2021/10/26 12:28:07;;;;;;;14.18;8.23;;;;;;;;;;5014771;28;20445;-82
2021/10/26 12:30:35;;;;;;;16.58;8.35;;;;;;;;;;5014435;28;20026;-82
2021/10/26 12:33:04;;;;;;;19.23;8.32;;;;;;;;;;5014794;28;20064;-82
2021/10/26 12:35:31;;;;;;;14.73;8.95;;;;;;;;;;5016929;28;20113;-82
2021/10/26 12:38:25;;;;;;;15.13;9.07;;;;;;;;;;5015837;28;20026;-82
2021/10/26 12:40:52;;;;;;;15.15;8.80;;;;;;;;;;5014577;28;20026;-81
2021/10/26 12:43:23;;;;;;;18.23;9.27;;;;;;;;;;5015740;28;20122;-81
2021/10/26 12:45:50;;;;;;;14.00;8.20;;;;;;;;;;5015988;28;20479;-82
2021/10/26 12:48:16;;;;;;;14.85;8.98;;;;;;;;;;5013543;28;20045;-82
2021/10/26 12:50:47;;;;;;;17.75;8.90;;;;;;;;;;5015402;28;20080;-82
2021/10/26 12:53:13;;;;;;;18.13;9.07;;;;;;;;;;5014251;28;20034;-82
2021/10/26 12:55:47;;;;;;;15.05;9.57;;;;;;;;;;5014222;28;20076;-82
2021/10/26 12:58:33;;;;;;;17.45;9.45;;;;;;;;;;5014194;28;20040;-81
2021/10/26 13:01:00;;;;;;;15.63;9.50;;;;;;;;;;5014032;28;20034;-82
2021/10/26 13:03:27;;;;;;;16.02;8.98;;;;;;;;;;5015651;28;20368;-89
2021/10/26 13:05:54;;;;;;;16.52;9.90;;;;;;;;;;5019660;28;20097;-84
2021/10/26 13:08:23;;;;;;;15.77;9.10;;;;;;;;;;5033745;28;20498;-85
2021/10/26 13:10:50;;;;;;;25.58;9.85;;;;;;;;;;5033626;28;20025;-86
2021/10/26 13:13:16;;;;;;;17.85;10.02;;;;;;;;;;5033724;28;20061;-85
2021/10/26 13:15:44;;;;;;;23.38;10.40;;;;;;;;;;5033685;28;20486;-81
2021/10/26 13:18:14;;;;;;;19.75;10.02;;;;;;;;;;5027762;28;20506;-82
2021/10/26 13:20:42;;;;;;;16.55;10.05;;;;;;;;;;5023121;28;20017;-86
2021/10/26 13:23:26;;;;;;;17.20;9.57;;;;;;;;;;5029614;28;20380;-85
2021/10/26 13:25:54;;;;;;;19.77;9.90;;;;;;;;;;5016737;28;20057;-84
2021/10/26 13:28:22;;;;;;;20.10;10.60;;;;;;;;;;5016060;28;20406;-86
2021/10/26 13:30:49;;;;;;;15.50;9.82;;;;;;;;;;5016804;28;20407;-86
2021/10/26 13:33:15;;;;;;;16.42;10.10;;;;;;;;;;5016947;28;20079;-84
2021/10/26 13:35:42;;;;;;;16.42;9.95;;;;;;;;;;5016551;28;20052;-84
2021/10/26 13:38:08;;;;;;;15.23;10.27;;;;;;;;;;5016879;28;20029;-84
2021/10/26 13:40:34;;;;;;;16.40;9.38;;;;;;;;;;5016818;28;20509;-84
2021/10/26 13:43:00;;;;;;;19.33;10.20;;;;;;;;;;5016715;28;20031;-87
2021/10/26 13:45:27;;;;;;;21.30;9.68;;;;;;;;;;5016666;28;20029;-83
2021/10/26 13:47:54;;;;;;;22.42;9.50;;;;;;;;;;5016540;28;20048;-84
2021/10/26 13:50:20;;;;;;;20.58;10.25;;;;;;;;;;5034358;28;20355;-83
2021/10/26 13:52:46;;;;;;;25.80;11.05;;;;;;;;;;5016501;28;20124;-86
2021/10/26 13:55:12;;;;;;;17.70;9.50;;;;;;;;;;5016219;28;20022;-84
2021/10/26 13:57:41;;;;;;;18.80;9.88;;;;;;;;;;5016282;28;20061;-82
2021/10/26 14:00:10;;;;;;;19.10;10.27;;;;;;;;;;5034177;28;20025;-84
2021/10/26 14:02:37;;;;;;;19.02;10.10;;;;;;;;;;5016385;28;20474;-85
2021/10/26 14:05:08;;;;;;;15.43;9.68;;;;;;;;;;5034739;28;20040;-88
2021/10/26 14:07:38;;;;;;;15.10;8.32;;;;;;;;;;5016055;28;20099;-84
2021/10/26 14:10:05;;;;;;;18.42;9.25;;;;;;;;;;5016225;28;20548;-83
2021/10/26 14:12:32;;;;;;;17.05;8.60;;;;;;;;;;5016280;28;20135;-86
2021/10/26 14:14:58;;;;;;;22.05;10.05;;;;;;;;;;5016183;28;20433;-83
2021/10/26 14:17:25;;;;;;;16.13;8.43;;;;;;;;;;5016108;28;20026;-85
2021/10/26 14:19:51;;;;;;;19.85;8.40;;;;;;;;;;5016210;28;20553;-88
2021/10/26 14:22:18;;;;;;;16.15;8.45;;;;;;;;;;5034097;28;20029;-90
2021/10/26 14:24:44;;;;;;;13.57;8.07;;;;;;;;;;5016250;28;20037;-89
2021/10/26 14:27:11;;;;;;;20.98;8.73;;;;;;;;;;5016206;28;20045;-82
2021/10/26 14:29:41;;;;;;;18.05;8.98;;;;;;;;;;5033988;28;20513;-87
2021/10/26 14:32:08;;;;;;;12.63;7.75;;;;;;;;;;5016205;28;20021;-86
2021/10/26 14:34:36;;;;;;;19.00;10.70;;;;;;;;;;5016157;28;20454;-87
2021/10/26 14:37:15;;;;;;;18.45;8.98;;;;;;;;;;5016523;28;20089;-84
2021/10/26 14:40:01;;;;;;;20.30;8.63;;;;;;;;;;5016015;28;20030;-85
2021/10/26 14:42:44;;;;;;;17.60;8.40;;;;;;;;;;5015735;28;20079;-84
2021/10/26 14:56:10;;;;;;;12.95;7.55;;;;;;;;;;4993263;28;20034;-85
2021/10/26 14:58:40;;;;;;;16.17;8.65;;;;;;;;;;5018761;28;20120;-85